Time;durP1;ratioP1;P1;durP2;ratioP2;P2;SDS_P1;SDS_P2;PMS_P1;PMS_P2;Temp;Humidity;BMP_temperature;BMP_pressure;BME280_temperature;BME280_humidity;BME280_pressure;Samples;Min_cycle;Max_cycle;Signal;HPM_P1;HPM_P2
2024/01/09 00:00:41;;;;;;;0.60;0.60;;;-5.10;99.90;;;;;;5078974;28;20420;-79
2024/01/09 00:03:07;;;;;;;0.70;0.70;;;-5.10;99.90;;;;;;5078425;28;20425;-80
2024/01/09 00:05:35;;;;;;;0.40;0.40;;;-5.00;99.90;;;;;;5077984;28;20934;-79
2024/01/09 00:08:02;;;;;;;0.40;0.40;;;-5.10;99.90;;;;;;5077798;28;20473;-79
2024/01/09 00:10:29;;;;;;;0.90;0.90;;;-5.20;99.90;;;;;;5078883;28;20416;-79
2024/01/09 00:12:57;;;;;;;0.60;0.60;;;-5.20;99.90;;;;;;5077792;28;20480;-79
2024/01/09 00:15:24;;;;;;;0.30;0.30;;;-5.20;99.90;;;;;;5077594;28;20436;-79
2024/01/09 00:17:51;;;;;;;1.27;1.20;;;-5.20;99.90;;;;;;5077764;28;20447;-79
2024/01/09 00:20:17;;;;;;;0.50;0.50;;;-5.20;99.90;;;;;;5077571;28;20459;-79
2024/01/09 00:22:46;;;;;;;1.90;1.43;;;-5.20;99.90;;;;;;5077713;28;20433;-79
2024/01/09 00:25:15;;;;;;;1.93;1.20;;;-5.10;99.90;;;;;;5077274;28;20419;-79
2024/01/09 00:27:42;;;;;;;3.53;1.67;;;-5.10;99.90;;;;;;5078395;28;20506;-79
2024/01/09 00:30:10;;;;;;;2.93;2.13;;;-5.10;99.90;;;;;;5077609;28;20441;-79
2024/01/09 00:32:37;;;;;;;2.10;1.53;;;-5.10;99.90;;;;;;5077209;28;20553;-79
2024/01/09 00:35:04;;;;;;;0.30;0.30;;;-5.20;99.90;;;;;;5077042;28;20444;-79
2024/01/09 00:37:31;;;;;;;6.87;2.20;;;-5.10;99.90;;;;;;5076923;28;20441;-79
2024/01/09 00:39:59;;;;;;;0.43;0.43;;;-5.10;99.90;;;;;;5077234;28;20423;-79
2024/01/09 00:42:26;;;;;;;0.50;0.50;;;-5.10;99.90;;;;;;5076790;28;20444;-79
2024/01/09 00:44:53;;;;;;;0.40;0.40;;;-5.10;99.90;;;;;;5076888;28;20423;-79
2024/01/09 00:47:19;;;;;;;0.50;0.50;;;-5.10;99.90;;;;;;5077357;28;20445;-79
2024/01/09 00:49:46;;;;;;;1.67;1.57;;;-5.10;99.90;;;;;;5077186;28;20448;-79
2024/01/09 00:52:13;;;;;;;0.70;0.70;;;-5.20;99.90;;;;;;5077298;28;20874;-79
2024/01/09 00:54:42;;;;;;;0.50;0.50;;;-5.20;99.90;;;;;;5077058;28;20451;-79
2024/01/09 00:57:10;;;;;;;0.40;0.40;;;-5.20;99.90;;;;;;5076704;28;20423;-80
2024/01/09 00:59:37;;;;;;;2.00;1.70;;;-5.20;99.90;;;;;;5076481;28;20431;-79
2024/01/09 01:02:04;;;;;;;1.13;1.03;;;-5.20;99.90;;;;;;5076781;28;20791;-79
2024/01/09 01:04:31;;;;;;;1.07;0.97;;;-5.30;99.90;;;;;;5086875;28;20441;-79
2024/01/09 01:06:57;;;;;;;0.50;0.50;;;-5.30;99.90;;;;;;5086755;28;20469;-80
2024/01/09 01:09:24;;;;;;;1.17;1.17;;;-5.30;99.90;;;;;;5081128;28;20471;-79
2024/01/09 01:11:51;;;;;;;0.60;0.50;;;-5.40;99.90;;;;;;5077880;28;20481;-80
2024/01/09 01:14:19;;;;;;;2.03;1.73;;;-5.30;99.90;;;;;;5078407;28;20437;-79
2024/01/09 01:16:45;;;;;;;0.97;0.93;;;-5.30;99.90;;;;;;5078459;28;20446;-79
2024/01/09 01:19:12;;;;;;;0.70;0.50;;;-5.30;99.90;;;;;;5077806;28;20465;-79
2024/01/09 01:21:39;;;;;;;0.50;0.50;;;-5.30;99.90;;;;;;5078264;28;20815;-79
2024/01/09 01:24:06;;;;;;;0.37;0.37;;;-5.40;99.90;;;;;;5077817;28;20440;-79
2024/01/09 01:26:32;;;;;;;2.37;2.20;;;-5.30;99.90;;;;;;5077726;28;20943;-79
2024/01/09 01:28:59;;;;;;;1.07;1.00;;;-5.30;99.90;;;;;;5077889;28;20464;-79
2024/01/09 01:31:27;;;;;;;0.90;0.70;;;-5.40;99.90;;;;;;5077830;28;20450;-79
2024/01/09 01:33:54;;;;;;;0.50;0.50;;;-5.40;99.90;;;;;;5077432;28;20484;-79
2024/01/09 01:36:21;;;;;;;1.37;0.90;;;-5.50;99.90;;;;;;5077046;28;20462;-79
2024/01/09 01:38:47;;;;;;;0.40;0.40;;;-5.50;99.90;;;;;;5076979;28;20435;-79
2024/01/09 01:41:14;;;;;;;0.47;0.47;;;-5.50;99.90;;;;;;5077239;28;20427;-79
2024/01/09 01:43:41;;;;;;;0.43;0.43;;;-5.40;99.90;;;;;;5076996;28;20415;-79
2024/01/09 01:46:08;;;;;;;1.43;0.63;;;-5.40;99.90;;;;;;5076870;28;20449;-79
2024/01/09 01:48:36;;;;;;;0.50;0.50;;;-5.50;99.90;;;;;;5076616;28;20444;-79
2024/01/09 01:51:04;;;;;;;0.30;0.30;;;-5.50;99.90;;;;;;5076575;28;20452;-79
2024/01/09 01:53:32;;;;;;;1.13;0.53;;;-5.50;99.90;;;;;;5076384;28;20799;-79
2024/01/09 01:55:59;;;;;;;1.23;1.23;;;-5.50;99.90;;;;;;5076942;28;20420;-79
2024/01/09 01:58:27;;;;;;;0.50;0.50;;;-5.50;99.90;;;;;;5076003;28;20997;-79
2024/01/09 02:00:54;;;;;;;1.23;1.13;;;-5.60;99.90;;;;;;5076231;28;20481;-79
2024/01/09 02:03:21;;;;;;;13.00;2.40;;;-5.50;99.90;;;;;;5075867;28;20444;-79
2024/01/09 02:05:50;;;;;;;0.83;0.83;;;-5.50;99.90;;;;;;5075772;28;20448;-79
2024/01/09 02:08:18;;;;;;;2.43;1.20;;;-5.60;99.90;;;;;;5076144;28;20461;-79
2024/01/09 02:10:45;;;;;;;2.63;0.50;;;-5.60;99.90;;;;;;5076561;28;20459;-79
2024/01/09 02:13:13;;;;;;;0.93;0.93;;;-5.60;99.90;;;;;;5078674;28;20459;-79
2024/01/09 02:15:40;;;;;;;0.90;0.90;;;-5.60;99.90;;;;;;5082996;28;20415;-79
2024/01/09 02:18:06;;;;;;;1.70;1.60;;;-5.60;99.90;;;;;;5082855;28;20460;-79
2024/01/09 02:20:33;;;;;;;1.67;0.90;;;-5.60;99.90;;;;;;5083184;28;20419;-79
2024/01/09 02:23:01;;;;;;;0.63;0.63;;;-5.60;99.90;;;;;;5082571;28;20441;-79
2024/01/09 02:25:28;;;;;;;0.90;0.50;;;-5.70;99.90;;;;;;5083406;28;20422;-79
2024/01/09 02:28:04;;;;;;;1.73;1.60;;;-5.70;99.90;;;;;;5082717;28;20435;-79
2024/01/09 02:30:33;;;;;;;2.07;0.80;;;-5.70;99.90;;;;;;5082565;28;20417;-79
2024/01/09 02:33:00;;;;;;;0.97;0.80;;;-5.60;99.90;;;;;;5082250;28;20480;-79
2024/01/09 02:35:27;;;;;;;0.40;0.40;;;-5.70;99.90;;;;;;5082252;28;20455;-79
2024/01/09 02:37:53;;;;;;;0.60;0.60;;;-5.70;99.90;;;;;;5082206;28;20494;-79
2024/01/09 02:40:22;;;;;;;0.60;0.60;;;-5.80;99.90;;;;;;5082348;28;20972;-79
2024/01/09 02:42:49;;;;;;;0.30;0.30;;;-5.80;99.90;;;;;;5082431;28;20415;-79
2024/01/09 02:45:15;;;;;;;1.60;0.70;;;-5.90;99.90;;;;;;5081903;28;20429;-79
2024/01/09 02:47:43;;;;;;;0.30;0.30;;;-5.80;99.90;;;;;;5081884;28;20441;-79
2024/01/09 02:50:10;;;;;;;0.83;0.83;;;-5.80;99.90;;;;;;5081779;28;20415;-79
2024/01/09 02:52:37;;;;;;;1.73;1.60;;;-5.80;99.90;;;;;;5081469;28;20455;-79
2024/01/09 02:55:04;;;;;;;1.00;1.00;;;-5.80;99.90;;;;;;5081462;28;20432;-79
2024/01/09 02:57:31;;;;;;;0.77;0.57;;;-5.80;99.90;;;;;;5082369;28;20420;-79
2024/01/09 02:59:58;;;;;;;0.43;0.43;;;-5.70;99.90;;;;;;5082812;28;20446;-79
2024/01/09 03:02:24;;;;;;;0.87;0.87;;;-5.70;99.90;;;;;;5081574;28;20430;-79
2024/01/09 03:04:52;;;;;;;1.70;0.60;;;-5.70;99.90;;;;;;5081894;28;20404;-80
2024/01/09 03:07:19;;;;;;;0.83;0.67;;;-5.70;99.90;;;;;;5084456;28;20443;-80
2024/01/09 03:09:46;;;;;;;1.23;0.63;;;-5.80;99.90;;;;;;5084431;28;20439;-80
2024/01/09 03:12:13;;;;;;;0.53;0.53;;;-5.80;99.90;;;;;;5084227;28;20445;-80
2024/01/09 03:14:41;;;;;;;1.80;1.70;;;-5.80;99.90;;;;;;5083792;28;20412;-79
2024/01/09 03:17:08;;;;;;;0.50;0.50;;;-5.80;99.90;;;;;;5083636;28;20441;-79
2024/01/09 03:19:34;;;;;;;1.03;0.87;;;-5.80;99.90;;;;;;5083517;28;20456;-79
2024/01/09 03:22:02;;;;;;;0.30;0.30;;;-5.80;99.90;;;;;;5084234;28;20459;-80
2024/01/09 03:24:29;;;;;;;4.53;0.97;;;-5.90;99.90;;;;;;5082634;28;20412;-80
2024/01/09 03:26:56;;;;;;;1.27;1.17;;;-5.90;99.90;;;;;;5079846;28;20413;-79
2024/01/09 03:29:23;;;;;;;0.87;0.87;;;-5.90;99.90;;;;;;5079772;28;20472;-79
2024/01/09 03:31:50;;;;;;;0.70;0.70;;;-5.90;99.90;;;;;;5080515;28;20444;-80
2024/01/09 03:34:17;;;;;;;4.37;1.63;;;-5.90;99.90;;;;;;5080196;28;20488;-79
2024/01/09 03:36:44;;;;;;;0.40;0.40;;;-5.90;99.90;;;;;;5080300;28;20444;-79
2024/01/09 03:39:14;;;;;;;1.50;1.40;;;-5.80;99.90;;;;;;5079815;28;20443;-79
2024/01/09 03:41:41;;;;;;;1.23;0.83;;;-5.80;99.90;;;;;;5080119;28;20449;-79
2024/01/09 03:44:08;;;;;;;1.00;1.00;;;-5.80;99.90;;;;;;5079812;28;20426;-79
2024/01/09 03:46:34;;;;;;;0.67;0.67;;;-5.80;99.90;;;;;;5079386;28;20420;-79
2024/01/09 03:49:01;;;;;;;0.60;0.50;;;-5.80;99.90;;;;;;5079224;28;20479;-79
2024/01/09 03:51:29;;;;;;;1.27;1.23;;;-5.80;99.90;;;;;;5079611;28;20430;-79
2024/01/09 03:53:56;;;;;;;1.63;1.53;;;-5.90;99.90;;;;;;5079216;28;20483;-79
2024/01/09 03:56:24;;;;;;;0.43;0.43;;;-5.80;99.90;;;;;;5078917;28;20451;-79
2024/01/09 03:58:52;;;;;;;0.97;0.77;;;-5.80;99.90;;;;;;5078560;28;20443;-79
2024/01/09 04:01:19;;;;;;;0.37;0.37;;;-5.80;99.90;;;;;;5078609;28;20444;-79
2024/01/09 04:03:46;;;;;;;0.87;0.87;;;-5.80;99.90;;;;;;5079259;28;20897;-79
2024/01/09 04:06:13;;;;;;;0.40;0.40;;;-5.80;99.90;;;;;;5089278;28;20451;-80
2024/01/09 04:08:40;;;;;;;2.13;1.57;;;-5.80;99.90;;;;;;5093835;28;20477;-79
2024/01/09 04:11:07;;;;;;;0.83;0.80;;;-5.80;99.90;;;;;;5083702;28;20407;-79
2024/01/09 04:13:35;;;;;;;0.50;0.50;;;-5.90;99.90;;;;;;5078828;28;20481;-79
2024/01/09 04:16:02;;;;;;;0.80;0.80;;;-5.90;99.90;;;;;;5078322;28;20448;-79
2024/01/09 04:18:29;;;;;;;0.40;0.40;;;-5.90;99.90;;;;;;5077479;28;20471;-79
2024/01/09 04:20:55;;;;;;;1.07;0.57;;;-5.80;99.90;;;;;;5077855;28;20445;-79
2024/01/09 04:23:23;;;;;;;0.30;0.20;;;-5.70;99.90;;;;;;5077619;28;20787;-79
2024/01/09 04:25:50;;;;;;;0.40;0.40;;;-5.70;99.90;;;;;;5077298;28;20428;-79
2024/01/09 04:28:17;;;;;;;0.30;0.30;;;-5.70;99.90;;;;;;5077904;28;20472;-79
2024/01/09 04:30:45;;;;;;;0.83;0.83;;;-5.60;99.90;;;;;;5078013;28;20433;-79
2024/01/09 04:33:11;;;;;;;0.30;0.30;;;-5.60;99.90;;;;;;5077712;28;20451;-79
2024/01/09 04:35:38;;;;;;;1.47;1.10;;;-5.60;99.90;;;;;;5077252;28;20534;-79
2024/01/09 04:38:05;;;;;;;5.60;0.70;;;-5.60;99.90;;;;;;5075764;28;20464;-79
2024/01/09 04:40:31;;;;;;;1.20;1.10;;;-5.60;99.90;;;;;;5077502;28;20426;-79
2024/01/09 04:42:58;;;;;;;0.30;0.30;;;-5.70;99.90;;;;;;5077188;28;20415;-79
2024/01/09 04:45:25;;;;;;;0.50;0.50;;;-5.80;99.90;;;;;;5076998;28;20445;-79
2024/01/09 04:47:53;;;;;;;0.40;0.40;;;-5.70;99.90;;;;;;5077208;28;20443;-79
2024/01/09 04:50:20;;;;;;;1.17;0.57;;;-5.80;99.90;;;;;;5076758;28;20426;-79
2024/01/09 04:52:46;;;;;;;1.60;1.60;;;-5.90;99.90;;;;;;5077049;28;20774;-79
2024/01/09 04:55:13;;;;;;;0.30;0.30;;;-6.00;99.90;;;;;;5076505;28;20410;-79
2024/01/09 04:57:40;;;;;;;3.73;1.03;;;-6.00;99.90;;;;;;5076696;28;20470;-79
2024/01/09 05:00:08;;;;;;;1.43;1.33;;;-6.10;99.90;;;;;;5076468;28;20417;-79
2024/01/09 05:02:35;;;;;;;0.50;0.50;;;-6.00;99.90;;;;;;5076906;28;20452;-79
2024/01/09 05:05:03;;;;;;;0.70;0.70;;;-6.10;99.90;;;;;;5076408;28;20452;-79
2024/01/09 05:07:30;;;;;;;0.73;0.73;;;-6.10;99.90;;;;;;5078015;28;20480;-80
2024/01/09 05:09:57;;;;;;;0.87;0.87;;;-6.10;99.90;;;;;;5078360;28;20422;-80
2024/01/09 05:12:24;;;;;;;2.60;2.50;;;-6.20;99.90;;;;;;5078521;28;20938;-80
2024/01/09 05:14:50;;;;;;;0.77;0.77;;;-6.10;99.90;;;;;;5078381;28;20477;-80
2024/01/09 05:17:17;;;;;;;0.50;0.50;;;-6.20;99.90;;;;;;5078653;28;20442;-79
2024/01/09 05:19:44;;;;;;;0.30;0.30;;;-6.20;99.90;;;;;;5077347;28;20435;-80
2024/01/09 05:22:12;;;;;;;1.23;1.23;;;-6.20;99.90;;;;;;5077440;28;20420;-80
2024/01/09 05:24:39;;;;;;;0.60;0.60;;;-6.20;99.90;;;;;;5077547;28;20430;-79
2024/01/09 05:27:05;;;;;;;0.80;0.77;;;-6.20;99.90;;;;;;5077018;28;20519;-79
2024/01/09 05:29:32;;;;;;;3.00;0.60;;;-6.20;99.90;;;;;;5076609;28;20452;-79
2024/01/09 05:31:59;;;;;;;0.73;0.73;;;-6.20;99.90;;;;;;5077181;28;20445;-80
2024/01/09 05:34:25;;;;;;;0.70;0.63;;;-6.20;99.90;;;;;;5076629;28;20473;-79
2024/01/09 05:36:52;;;;;;;0.70;0.70;;;-6.20;99.90;;;;;;5076680;28;20437;-79
2024/01/09 05:39:20;;;;;;;0.30;0.30;;;-6.20;99.90;;;;;;5077122;28;20453;-79
2024/01/09 05:41:47;;;;;;;0.40;0.40;;;-6.30;99.90;;;;;;5076353;28;20429;-79
2024/01/09 05:44:14;;;;;;;0.70;0.70;;;-6.30;99.90;;;;;;5076359;28;20433;-80
2024/01/09 05:46:40;;;;;;;0.50;0.50;;;-6.20;99.90;;;;;;5076028;28;20913;-79
2024/01/09 05:49:07;;;;;;;0.40;0.40;;;-6.20;99.90;;;;;;5075909;28;20465;-79
2024/01/09 05:51:34;;;;;;;4.00;1.00;;;-6.20;99.90;;;;;;5076018;28;20441;-79
2024/01/09 05:54:00;;;;;;;1.70;1.50;;;-6.20;99.90;;;;;;5076128;28;20476;-79
2024/01/09 05:56:28;;;;;;;0.40;0.40;;;-6.10;99.90;;;;;;5076183;28;20445;-79
2024/01/09 05:58:55;;;;;;;1.27;1.20;;;-6.20;99.90;;;;;;5075662;28;20472;-79
2024/01/09 06:01:22;;;;;;;1.70;0.60;;;-6.30;99.90;;;;;;5075996;28;20433;-79
2024/01/09 06:03:49;;;;;;;1.73;1.73;;;-6.30;99.90;;;;;;5075743;28;20445;-79
2024/01/09 06:06:15;;;;;;;0.33;0.33;;;-6.20;99.90;;;;;;5075601;28;20466;-80
2024/01/09 06:08:42;;;;;;;0.30;0.30;;;-6.20;99.90;;;;;;5075685;28;20810;-79
2024/01/09 06:11:09;;;;;;;8.70;1.80;;;-6.20;99.90;;;;;;5075554;28;20452;-79
2024/01/09 06:13:37;;;;;;;1.63;1.50;;;-6.20;99.90;;;;;;5074998;28;20455;-79
2024/01/09 06:16:05;;;;;;;0.30;0.30;;;-6.20;99.90;;;;;;5075474;28;20447;-79
2024/01/09 06:18:31;;;;;;;1.13;1.13;;;-6.10;99.90;;;;;;5075858;28;20460;-79
2024/01/09 06:20:58;;;;;;;0.40;0.40;;;-6.10;99.90;;;;;;5076123;28;20908;-79
2024/01/09 06:23:25;;;;;;;2.73;1.17;;;-6.10;99.90;;;;;;5075449;28;20456;-79
2024/01/09 06:25:51;;;;;;;0.53;0.53;;;-6.20;99.90;;;;;;5075118;28;20433;-79
2024/01/09 06:28:18;;;;;;;3.40;2.30;;;-6.20;99.90;;;;;;5074859;28;20436;-79
2024/01/09 06:30:46;;;;;;;0.43;0.43;;;-6.20;99.90;;;;;;5075023;28;20445;-79
2024/01/09 06:33:13;;;;;;;0.37;0.37;;;-6.20;99.90;;;;;;5075032;28;20426;-80
2024/01/09 06:35:40;;;;;;;4.97;0.70;;;-6.20;99.90;;;;;;5074674;28;20419;-79
2024/01/09 06:38:07;;;;;;;0.60;0.60;;;-6.20;99.90;;;;;;5074509;28;20467;-79
2024/01/09 06:40:33;;;;;;;0.80;0.60;;;-6.20;99.90;;;;;;5074816;28;20494;-79
2024/01/09 06:43:00;;;;;;;0.60;0.60;;;-6.10;99.90;;;;;;5074624;28;20449;-79
2024/01/09 06:45:27;;;;;;;1.07;0.97;;;-6.20;99.90;;;;;;5074723;28;20411;-79
2024/01/09 06:47:55;;;;;;;0.30;0.30;;;-6.10;99.90;;;;;;5075108;28;20457;-79
2024/01/09 06:50:21;;;;;;;0.50;0.50;;;-6.10;99.90;;;;;;5075946;28;20913;-79
2024/01/09 06:52:48;;;;;;;0.60;0.60;;;-6.10;99.90;;;;;;5076125;28;20461;-79
2024/01/09 06:55:15;;;;;;;0.50;0.50;;;-6.10;99.90;;;;;;5076348;28;20488;-79
2024/01/09 06:57:42;;;;;;;0.67;0.67;;;-6.10;99.90;;;;;;5076286;28;20453;-79
2024/01/09 07:00:09;;;;;;;0.40;0.40;;;-6.10;99.90;;;;;;5076950;28;20423;-79
2024/01/09 07:02:36;;;;;;;0.40;0.40;;;-6.10;99.90;;;;;;5080051;28;20420;-79
2024/01/09 07:05:04;;;;;;;1.07;0.97;;;-6.10;99.90;;;;;;5079747;28;20460;-79
2024/01/09 07:07:30;;;;;;;0.40;0.40;;;-6.10;99.90;;;;;;5079775;28;21031;-80
2024/01/09 07:09:57;;;;;;;0.30;0.30;;;-6.10;99.90;;;;;;5080258;28;20416;-80
2024/01/09 07:12:24;;;;;;;0.47;0.47;;;-6.10;99.90;;;;;;5080452;28;20209;-79
2024/01/09 07:14:50;;;;;;;0.60;0.60;;;-6.10;99.90;;;;;;5080286;28;20488;-79
2024/01/09 07:17:17;;;;;;;0.60;0.60;;;-6.10;99.90;;;;;;5080197;28;20420;-79
2024/01/09 07:19:44;;;;;;;0.43;0.43;;;-6.10;99.90;;;;;;5080744;28;20536;-79
2024/01/09 07:22:12;;;;;;;0.30;0.30;;;-6.20;99.90;;;;;;5088722;28;20455;-79
2024/01/09 07:24:39;;;;;;;0.30;0.30;;;-6.10;99.90;;;;;;5087276;28;20427;-80
2024/01/09 07:27:05;;;;;;;1.50;1.03;;;-6.20;99.90;;;;;;5086982;28;20424;-79
2024/01/09 07:29:32;;;;;;;0.80;0.80;;;-6.30;99.90;;;;;;5079634;28;20806;-79
2024/01/09 07:31:59;;;;;;;0.53;0.53;;;-6.20;99.90;;;;;;5081664;28;20439;-80
2024/01/09 07:34:26;;;;;;;6.67;2.33;;;-6.10;99.90;;;;;;5081675;28;20483;-81
2024/01/09 07:36:52;;;;;;;0.80;0.80;;;-6.10;99.90;;;;;;5080319;28;20419;-80
2024/01/09 07:39:20;;;;;;;2.67;0.60;;;-6.00;99.90;;;;;;5080784;28;20468;-80
2024/01/09 07:41:47;;;;;;;0.30;0.30;;;-6.10;99.90;;;;;;5080849;28;20445;-80
2024/01/09 07:44:14;;;;;;;0.30;0.30;;;-6.10;99.90;;;;;;5080160;28;20404;-80
2024/01/09 07:46:41;;;;;;;1.70;1.70;;;-6.00;99.90;;;;;;5079886;28;20476;-80
2024/01/09 07:49:09;;;;;;;2.87;2.40;;;-6.00;99.90;;;;;;5080133;28;20826;-80
2024/01/09 07:51:35;;;;;;;0.50;0.50;;;-6.00;99.90;;;;;;5079885;28;20380;-80
2024/01/09 07:54:03;;;;;;;0.50;0.40;;;-6.00;99.90;;;;;;5079955;28;20491;-80
2024/01/09 07:56:32;;;;;;;0.93;0.93;;;-6.00;99.90;;;;;;5080342;28;20445;-80
2024/01/09 07:58:58;;;;;;;1.80;1.33;;;-5.90;99.90;;;;;;5079884;28;20461;-80
2024/01/09 08:01:27;;;;;;;0.30;0.27;;;-5.90;99.90;;;;;;5080261;28;20456;-81
2024/01/09 08:03:54;;;;;;;0.50;0.50;;;-5.90;99.90;;;;;;5080675;28;20427;-80
2024/01/09 08:06:20;;;;;;;0.30;0.30;;;-5.90;99.90;;;;;;5080549;28;20454;-80
2024/01/09 08:08:47;;;;;;;0.30;0.30;;;-5.90;99.90;;;;;;5079946;28;20468;-80
2024/01/09 08:11:14;;;;;;;0.87;0.73;;;-5.90;99.90;;;;;;5080115;28;20448;-80
2024/01/09 08:13:42;;;;;;;0.90;0.90;;;-5.80;99.90;;;;;;5080481;28;20494;-80
2024/01/09 08:16:09;;;;;;;0.40;0.40;;;-5.80;99.90;;;;;;5079697;28;20433;-80
2024/01/09 08:18:37;;;;;;;0.40;0.40;;;-5.70;99.90;;;;;;5078679;28;20446;-80
2024/01/09 08:21:03;;;;;;;0.77;0.77;;;-5.60;99.90;;;;;;5079909;28;20448;-80
2024/01/09 08:23:30;;;;;;;2.60;2.10;;;-5.60;99.90;;;;;;5079285;28;20438;-80
2024/01/09 08:25:57;;;;;;;0.70;0.63;;;-5.50;99.90;;;;;;5079082;28;20437;-80
2024/01/09 08:28:24;;;;;;;0.70;0.70;;;-5.30;99.90;;;;;;5079402;28;20458;-80
2024/01/09 08:30:52;;;;;;;0.77;0.77;;;-5.20;99.90;;;;;;5079387;28;20476;-80
2024/01/09 08:33:19;;;;;;;0.30;0.30;;;-5.10;99.90;;;;;;5078731;28;20426;-80
2024/01/09 08:35:49;;;;;;;2.93;1.87;;;-5.00;99.90;;;;;;5078546;28;20450;-80
2024/01/09 08:38:17;;;;;;;1.13;0.90;;;-4.90;99.90;;;;;;5078363;28;20465;-80
2024/01/09 08:40:44;;;;;;;0.63;0.63;;;-4.80;99.90;;;;;;5078002;28;20440;-80
2024/01/09 08:43:10;;;;;;;6.53;2.73;;;-4.70;99.90;;;;;;5078127;28;20475;-80
2024/01/09 08:45:37;;;;;;;1.27;1.27;;;-4.50;99.90;;;;;;5077149;28;20445;-82
2024/01/09 08:48:06;;;;;;;0.40;0.40;;;-4.50;99.90;;;;;;5077475;28;20840;-80
2024/01/09 08:50:33;;;;;;;0.80;0.67;;;-4.50;99.90;;;;;;5077735;28;20832;-80
2024/01/09 08:53:00;;;;;;;1.90;0.77;;;-4.40;99.90;;;;;;5078374;28;20411;-80
2024/01/09 08:55:27;;;;;;;0.67;0.67;;;-4.20;99.90;;;;;;5076913;28;20451;-80
2024/01/09 08:57:54;;;;;;;1.70;0.50;;;-4.20;99.90;;;;;;5077688;28;20448;-80
2024/01/09 09:00:21;;;;;;;0.40;0.40;;;-4.20;99.90;;;;;;5077557;28;20447;-80
2024/01/09 09:02:48;;;;;;;1.70;1.70;;;-4.10;99.90;;;;;;5076970;28;20444;-80
2024/01/09 09:05:16;;;;;;;2.80;1.90;;;-3.80;99.90;;;;;;5078955;28;20429;-80
2024/01/09 09:07:43;;;;;;;2.17;2.03;;;-3.70;99.90;;;;;;5087210;28;20466;-79
2024/01/09 09:10:10;;;;;;;0.93;0.93;;;-3.60;99.90;;;;;;5081184;28;20451;-81
2024/01/09 09:12:37;;;;;;;0.60;0.60;;;-3.50;99.90;;;;;;5079351;28;20440;-80
2024/01/09 09:15:04;;;;;;;0.70;0.50;;;-3.50;99.90;;;;;;5080642;28;20479;-80
2024/01/09 09:17:31;;;;;;;1.13;1.13;;;-3.50;99.90;;;;;;5080481;28;20449;-80
2024/01/09 09:19:58;;;;;;;3.97;3.17;;;-3.40;99.90;;;;;;5080712;28;20807;-80
2024/01/09 09:22:28;;;;;;;5.40;1.00;;;-3.40;99.90;;;;;;5080587;28;20408;-80
2024/01/09 09:24:55;;;;;;;0.57;0.57;;;-3.30;99.90;;;;;;5079800;28;20412;-80
2024/01/09 09:27:22;;;;;;;1.03;0.73;;;-3.40;99.90;;;;;;5079553;28;20823;-80
2024/01/09 09:29:49;;;;;;;0.67;0.67;;;-3.50;99.90;;;;;;5079298;28;20439;-80
2024/01/09 09:32:16;;;;;;;0.70;0.70;;;-3.50;99.90;;;;;;5079311;28;20436;-80
2024/01/09 09:34:43;;;;;;;0.70;0.70;;;-3.60;99.90;;;;;;5078634;28;20469;-80
2024/01/09 09:37:11;;;;;;;0.60;0.60;;;-3.70;99.90;;;;;;5078570;28;20423;-80
2024/01/09 09:39:39;;;;;;;0.70;0.70;;;-3.80;99.90;;;;;;5078282;28;20781;-79
2024/01/09 09:42:06;;;;;;;4.93;1.00;;;-3.70;99.90;;;;;;5078124;28;20441;-80
2024/01/09 09:44:37;;;;;;;0.80;0.80;;;-3.50;99.90;;;;;;5078512;28;20430;-80
2024/01/09 09:47:05;;;;;;;1.87;1.17;;;-3.30;99.90;;;;;;5078940;28;20410;-79
2024/01/09 09:49:33;;;;;;;0.40;0.40;;;-3.20;99.90;;;;;;5078435;28;20439;-80
2024/01/09 09:52:00;;;;;;;0.60;0.60;;;-3.20;99.90;;;;;;5078117;28;20452;-80
2024/01/09 09:54:27;;;;;;;14.27;2.10;;;-3.00;99.90;;;;;;5078339;28;20445;-80
2024/01/09 09:56:55;;;;;;;1.37;1.30;;;-2.70;99.90;;;;;;5078236;28;20415;-80
2024/01/09 09:59:21;;;;;;;1.43;1.37;;;-2.00;99.90;;;;;;5077641;28;20473;-80
2024/01/09 10:01:48;;;;;;;1.70;0.60;;;-1.20;99.90;;;;;;5077580;28;20438;-80
2024/01/09 10:04:30;;;;;;;1.77;1.63;;;0.00;99.90;;;;;;5076892;28;20445;-80
2024/01/09 10:06:58;;;;;;;1.73;1.47;;;0.80;99.90;;;;;;5077039;28;20451;-80
2024/01/09 10:09:33;;;;;;;3.33;1.50;;;1.00;99.90;;;;;;5076290;28;20471;-80
2024/01/09 10:12:01;;;;;;;3.20;1.57;;;2.00;99.90;;;;;;5077068;28;20428;-80
2024/01/09 10:14:27;;;;;;;4.77;1.90;;;2.20;99.90;;;;;;5076676;28;20448;-81
2024/01/09 10:16:56;;;;;;;0.90;0.90;;;2.30;99.90;;;;;;5076150;28;20436;-81
2024/01/09 10:19:23;;;;;;;2.53;1.20;;;1.70;99.90;;;;;;5076412;28;20496;-81
2024/01/09 10:21:50;;;;;;;2.57;1.13;;;1.30;99.90;;;;;;5077168;28;20425;-80
2024/01/09 10:24:18;;;;;;;1.90;1.47;;;0.40;99.90;;;;;;5076908;28;20445;-80
2024/01/09 10:26:45;;;;;;;1.43;1.10;;;-0.30;99.90;;;;;;5076251;28;20946;-80
2024/01/09 10:29:13;;;;;;;3.27;2.90;;;-0.80;99.90;;;;;;5077021;28;20463;-81
2024/01/09 10:31:44;;;;;;;0.80;0.80;;;-1.10;99.90;;;;;;5076498;28;20452;-81
2024/01/09 10:34:11;;;;;;;10.60;1.23;;;-1.20;99.90;;;;;;5076868;28;20482;-81
2024/01/09 10:36:38;;;;;;;1.50;1.17;;;-1.40;99.90;;;;;;5080824;28;20484;-81
2024/01/09 10:39:05;;;;;;;3.87;3.23;;;-1.60;99.90;;;;;;5080781;28;20468;-81
2024/01/09 10:41:32;;;;;;;1.40;1.00;;;-1.70;99.90;;;;;;5087605;28;20902;-81
2024/01/09 10:44:00;;;;;;;1.30;1.13;;;-1.80;99.90;;;;;;5099235;28;20451;-81
2024/01/09 10:46:31;;;;;;;5.23;2.37;;;-1.90;99.90;;;;;;5099996;28;20505;-81
2024/01/09 10:48:58;;;;;;;2.50;1.20;;;-2.00;99.90;;;;;;5084951;28;20460;-81
2024/01/09 10:51:25;;;;;;;0.30;0.30;;;-2.10;99.90;;;;;;5083875;28;20444;-81
2024/01/09 10:53:53;;;;;;;4.47;1.27;;;-2.10;99.90;;;;;;5083285;28;20448;-80
2024/01/09 10:56:21;;;;;;;2.30;1.37;;;-2.30;99.90;;;;;;5081396;28;20488;-81
2024/01/09 10:58:50;;;;;;;1.93;1.37;;;-2.40;99.90;;;;;;5082023;28;20525;-81
2024/01/09 11:01:17;;;;;;;1.00;1.00;;;-2.50;99.90;;;;;;5081570;28;20419;-81
2024/01/09 11:03:47;;;;;;;0.30;0.30;;;-2.40;99.90;;;;;;5081802;28;20455;-80
2024/01/09 11:06:16;;;;;;;0.37;0.37;;;-2.30;99.90;;;;;;5082746;28;20447;-81
2024/01/09 11:08:50;;;;;;;0.60;0.50;;;-2.10;99.90;;;;;;5084008;28;20469;-81
2024/01/09 11:11:18;;;;;;;2.40;2.10;;;-2.10;99.90;;;;;;5084023;28;20431;-81
2024/01/09 11:13:49;;;;;;;1.90;1.17;;;-2.20;99.90;;;;;;5082816;28;20440;-81
2024/01/09 11:16:20;;;;;;;1.43;1.33;;;-2.20;99.90;;;;;;5082708;28;20435;-81
2024/01/09 11:18:49;;;;;;;0.77;0.73;;;-2.20;99.90;;;;;;5082819;28;20815;-81
2024/01/09 11:21:24;;;;;;;2.73;2.23;;;-2.30;99.90;;;;;;5084972;28;20441;-79
2024/01/09 11:24:00;;;;;;;0.70;0.70;;;-2.20;99.90;;;;;;5081438;28;20429;-80
2024/01/09 11:26:30;;;;;;;0.33;0.33;;;-2.30;99.90;;;;;;5077982;28;20422;-81
2024/01/09 11:28:58;;;;;;;9.07;1.43;;;-2.30;99.90;;;;;;5077031;28;20435;-81
2024/01/09 11:31:27;;;;;;;5.60;2.13;;;-2.20;99.90;;;;;;5076892;28;20445;-81
2024/01/09 11:33:57;;;;;;;0.77;0.60;;;-2.10;99.90;;;;;;5077420;28;20448;-80
2024/01/09 11:36:28;;;;;;;3.50;0.80;;;-2.10;99.90;;;;;;5078885;28;20518;-81
2024/01/09 11:38:55;;;;;;;2.00;0.87;;;-2.10;99.90;;;;;;5077386;28;20454;-80
2024/01/09 11:41:24;;;;;;;1.00;1.00;;;-2.00;99.90;;;;;;5078701;28;20449;-80
2024/01/09 11:44:02;;;;;;;0.80;0.80;;;-2.00;99.90;;;;;;5080233;28;20445;-80
2024/01/09 11:46:31;;;;;;;0.90;0.90;;;-2.00;99.90;;;;;;5077625;28;20437;-80
2024/01/09 11:48:59;;;;;;;0.60;0.60;;;-1.90;99.90;;;;;;5076863;28;20969;-80
2024/01/09 11:51:26;;;;;;;0.60;0.60;;;-1.90;99.90;;;;;;5077000;28;20412;-80
2024/01/09 11:53:53;;;;;;;0.73;0.73;;;-1.90;99.90;;;;;;5078730;28;20416;-80
2024/01/09 11:56:21;;;;;;;0.67;0.67;;;-1.90;99.90;;;;;;5078593;28;20469;-80
2024/01/09 11:58:51;;;;;;;0.73;0.73;;;-1.90;99.90;;;;;;5078223;28;20459;-80
2024/01/09 12:01:19;;;;;;;1.77;0.90;;;-1.80;99.90;;;;;;5077294;28;20881;-81
2024/01/09 12:03:51;;;;;;;0.30;0.30;;;-1.90;99.90;;;;;;5078003;28;20471;-81
2024/01/09 12:06:21;;;;;;;1.73;1.63;;;-1.90;99.90;;;;;;5078462;28;20896;-80
2024/01/09 12:08:48;;;;;;;1.40;1.30;;;-1.80;99.90;;;;;;5078625;28;20468;-80
2024/01/09 12:11:15;;;;;;;4.27;1.33;;;-1.80;99.90;;;;;;5078313;28;20423;-80
2024/01/09 12:13:42;;;;;;;0.70;0.70;;;-1.80;99.90;;;;;;5077603;28;20448;-80
2024/01/09 12:16:17;;;;;;;0.70;0.70;;;-1.90;99.90;;;;;;5076884;28;20473;-80
2024/01/09 12:18:52;;;;;;;0.70;0.70;;;-1.90;99.90;;;;;;5077567;28;20468;-80
2024/01/09 12:21:20;;;;;;;1.27;1.17;;;-1.90;99.90;;;;;;5077010;28;20429;-80
2024/01/09 12:23:47;;;;;;;1.00;1.00;;;-1.80;99.90;;;;;;5077247;28;20439;-80
2024/01/09 12:26:16;;;;;;;0.83;0.83;;;-1.80;99.90;;;;;;5077880;28;20452;-80
2024/01/09 12:28:43;;;;;;;1.27;1.03;;;-1.80;99.90;;;;;;5079163;28;20832;-80
2024/01/09 12:31:10;;;;;;;39.77;3.10;;;-1.80;99.90;;;;;;5078057;28;20540;-79
2024/01/09 12:33:38;;;;;;;1.27;1.17;;;-1.80;99.90;;;;;;5077082;28;20433;-82
2024/01/09 12:36:05;;;;;;;1.67;1.57;;;-1.70;99.90;;;;;;5077239;28;20501;-82
2024/01/09 12:38:34;;;;;;;1.43;1.40;;;-1.70;99.90;;;;;;5077428;28;20464;-80
2024/01/09 12:41:01;;;;;;;1.67;1.67;;;-1.80;99.90;;;;;;5077691;28;20451;-79
2024/01/09 12:43:29;;;;;;;0.43;0.43;;;-1.80;99.90;;;;;;5078930;28;20424;-80
2024/01/09 12:45:56;;;;;;;1.10;1.00;;;-1.80;99.90;;;;;;5079256;28;20520;-80
2024/01/09 12:48:23;;;;;;;0.90;0.50;;;-1.90;99.90;;;;;;5077724;28;20447;-79